sensor_id;sensor_type;location;lat;lon;timestamp;pressure;altitude;pressure_sealevel;temperature;humidity
31183;BME280;17813;0.000;0.000;2024-01-30T00:02:25;78286.31;;;-142.58;69.46
31183;BME280;17813;0.000;0.000;2024-01-30T00:05:07;78276.16;;;-142.58;68.68
31183;BME280;17813;0.000;0.000;2024-01-30T00:07:34;78268.00;;;-142.58;68.76
31183;BME280;17813;0.000;0.000;2024-01-30T00:10:03;78253.75;;;-142.58;68.90
31183;BME280;17813;0.000;0.000;2024-01-30T00:12:39;78227.31;;;-142.58;68.16
31183;BME280;17813;0.000;0.000;2024-01-30T00:15:08;78213.06;;;-142.58;67.81
31183;BME280;17813;0.000;0.000;2024-01-30T00:17:39;78188.75;;;-142.58;67.29
31183;BME280;17813;0.000;0.000;2024-01-30T00:20:26;78188.63;;;-142.58;67.10
31183;BME280;17813;0.000;0.000;2024-01-30T00:22:54;78186.59;;;-142.58;67.17
31183;BME280;17813;0.000;0.000;2024-01-30T00:25:21;78174.38;;;-142.58;67.17
31183;BME280;17813;0.000;0.000;2024-01-30T00:27:50;78176.41;;;-142.58;66.66
31183;BME280;17813;0.000;0.000;2024-01-30T00:30:17;78166.25;;;-142.58;66.65
31183;BME280;17813;0.000;0.000;2024-01-30T00:32:47;78160.13;;;-142.58;61.68
31183;BME280;17813;0.000;0.000;2024-01-30T00:35:14;78152.00;;;-142.58;65.89
31183;BME280;17813;0.000;0.000;2024-01-30T00:37:44;78149.97;;;-142.58;66.25
31183;BME280;17813;0.000;0.000;2024-01-30T00:40:12;78143.84;;;-142.58;66.20
31183;BME280;17813;0.000;0.000;2024-01-30T00:42:55;78149.97;;;-142.58;66.02
31183;BME280;17813;0.000;0.000;2024-01-30T00:45:40;78152.00;;;-142.58;66.35
31183;BME280;17813;0.000;0.000;2024-01-30T00:48:25;78152.00;;;-142.58;65.95
31183;BME280;17813;0.000;0.000;2024-01-30T00:50:53;78139.78;;;-142.58;66.15
31183;BME280;17813;0.000;0.000;2024-01-30T00:53:31;78149.97;;;-142.58;66.33
31183;BME280;17813;0.000;0.000;2024-01-30T00:56:13;78139.78;;;-142.58;65.72
31183;BME280;17813;0.000;0.000;2024-01-30T00:58:44;78139.78;;;-142.58;65.89
31183;BME280;17813;0.000;0.000;2024-01-30T01:01:18;78125.53;;;-142.58;65.83
31183;BME280;17813;0.000;0.000;2024-01-30T01:04:08;78123.50;;;-142.58;65.47
31183;BME280;17813;0.000;0.000;2024-01-30T01:06:58;78119.44;;;-142.58;66.32
31183;BME280;17813;0.000;0.000;2024-01-30T01:09:50;78125.53;;;-142.58;65.28
31183;BME280;17813;0.000;0.000;2024-01-30T01:12:37;78119.44;;;-142.58;65.56
31183;BME280;17813;0.000;0.000;2024-01-30T01:15:07;78119.44;;;-142.58;65.53
31183;BME280;17813;0.000;0.000;2024-01-30T01:17:40;78119.44;;;-142.58;65.76
31183;BME280;17813;0.000;0.000;2024-01-30T01:20:08;78105.19;;;-142.58;64.82
31183;BME280;17813;0.000;0.000;2024-01-30T01:22:38;78097.03;;;-142.58;64.75
31183;BME280;17813;0.000;0.000;2024-01-30T01:25:24;78097.03;;;-142.58;65.04
31183;BME280;17813;0.000;0.000;2024-01-30T01:27:58;78105.19;;;-142.58;64.63
31183;BME280;17813;0.000;0.000;2024-01-30T01:30:29;78103.16;;;-142.58;65.06
31183;BME280;17813;0.000;0.000;2024-01-30T01:32:57;78107.22;;;-142.58;65.25
31183;BME280;17813;0.000;0.000;2024-01-30T01:35:28;78103.16;;;-142.58;65.93
31183;BME280;17813;0.000;0.000;2024-01-30T01:37:59;78103.16;;;-142.58;64.84
31183;BME280;17813;0.000;0.000;2024-01-30T01:40:47;78099.06;;;-142.58;65.28
31183;BME280;17813;0.000;0.000;2024-01-30T01:43:30;78111.28;;;-142.58;64.98
31183;BME280;17813;0.000;0.000;2024-01-30T01:46:18;78109.25;;;-142.58;65.87
31183;BME280;17813;0.000;0.000;2024-01-30T01:49:09;78109.25;;;-142.58;65.78
31183;BME280;17813;0.000;0.000;2024-01-30T01:51:39;78109.25;;;-142.58;65.52
31183;BME280;17813;0.000;0.000;2024-01-30T01:54:08;78115.34;;;-142.58;65.89
31183;BME280;17813;0.000;0.000;2024-01-30T01:56:36;78111.28;;;-142.58;65.89
31183;BME280;17813;0.000;0.000;2024-01-30T01:59:09;100816.47;;;-142.58;65.44
31183;BME280;17813;0.000;0.000;2024-01-30T02:01:38;78115.34;;;-142.58;65.44
31183;BME280;17813;0.000;0.000;2024-01-30T02:04:09;78111.28;;;-142.58;65.89
31183;BME280;17813;0.000;0.000;2024-01-30T02:06:38;78113.31;;;-142.58;65.63
31183;BME280;17813;0.000;0.000;2024-01-30T02:09:06;78105.19;;;-142.58;65.89
31183;BME280;17813;0.000;0.000;2024-01-30T02:11:36;78101.09;;;-142.58;65.89
31183;BME280;17813;0.000;0.000;2024-01-30T02:14:06;78107.22;;;-142.58;65.76
31183;BME280;17813;0.000;0.000;2024-01-30T02:16:33;78095.00;;;-142.58;65.49
31183;BME280;17813;0.000;0.000;2024-01-30T02:19:10;78095.00;;;-142.58;66.04
31183;BME280;17813;0.000;0.000;2024-01-30T02:21:56;78082.91;;;-142.58;65.90
31183;BME280;17813;0.000;0.000;2024-01-30T02:24:25;78086.84;;;-142.58;65.86
31183;BME280;17813;0.000;0.000;2024-01-30T02:26:51;78087.00;;;-142.58;65.78
31183;BME280;17813;0.000;0.000;2024-01-30T02:29:36;78089.03;;;-142.58;65.83
31183;BME280;17813;0.000;0.000;2024-01-30T02:32:06;78091.06;;;-142.58;65.89
31183;BME280;17813;0.000;0.000;2024-01-30T02:34:52;100809.94;;;-142.58;65.64
31183;BME280;17813;0.000;0.000;2024-01-30T02:37:26;78087.00;;;-142.58;65.64
31183;BME280;17813;0.000;0.000;2024-01-30T02:40:12;78082.78;;;-142.58;65.91
31183;BME280;17813;0.000;0.000;2024-01-30T02:42:57;78087.00;;;-142.58;65.91
31183;BME280;17813;0.000;0.000;2024-01-30T02:45:36;78091.06;;;-142.58;65.66
31183;BME280;17813;0.000;0.000;2024-01-30T02:48:07;78097.03;;;-142.58;65.88
31183;BME280;17813;0.000;0.000;2024-01-30T02:50:35;78099.06;;;-142.58;65.90
31183;BME280;17813;0.000;0.000;2024-01-30T02:53:21;78103.16;;;-142.58;66.88
31183;BME280;17813;0.000;0.000;2024-01-30T02:56:10;78123.50;;;-142.58;67.53
31183;BME280;17813;0.000;0.000;2024-01-30T02:59:03;78119.44;;;-142.58;66.84
31183;BME280;17813;0.000;0.000;2024-01-30T03:01:32;78135.72;;;-142.58;67.02
31183;BME280;17813;0.000;0.000;2024-01-30T03:04:14;78135.72;;;-142.58;67.11
31183;BME280;17813;0.000;0.000;2024-01-30T03:06:45;78137.75;;;-142.58;67.14
31183;BME280;17813;0.000;0.000;2024-01-30T03:09:29;78141.81;;;-142.58;67.71
31183;BME280;17813;0.000;0.000;2024-01-30T03:12:10;100799.69;;;-142.58;66.76
31183;BME280;17813;0.000;0.000;2024-01-30T03:14:49;78156.19;;;-142.58;67.12
31183;BME280;17813;0.000;0.000;2024-01-30T03:17:19;78141.81;;;-142.58;67.00
31183;BME280;17813;0.000;0.000;2024-01-30T03:19:47;78152.00;;;-142.58;67.19
31183;BME280;17813;0.000;0.000;2024-01-30T03:22:17;78156.19;;;-142.58;67.64
31183;BME280;17813;0.000;0.000;2024-01-30T03:24:44;78182.53;;;-142.58;67.91
31183;BME280;17813;0.000;0.000;2024-01-30T03:27:11;78188.63;;;-142.58;68.66
31183;BME280;17813;0.000;0.000;2024-01-30T03:29:47;78186.59;;;-142.58;67.99
31183;BME280;17813;0.000;0.000;2024-01-30T03:32:15;78174.38;;;-142.58;68.07
31183;BME280;17813;0.000;0.000;2024-01-30T03:34:43;78172.34;;;-142.58;68.24
31183;BME280;17813;0.000;0.000;2024-01-30T03:37:20;78180.47;;;-142.58;68.21
31183;BME280;17813;0.000;0.000;2024-01-30T03:39:50;78172.34;;;-142.58;67.85
31183;BME280;17813;0.000;0.000;2024-01-30T03:42:35;78174.38;;;-142.58;68.15
31183;BME280;17813;0.000;0.000;2024-01-30T03:45:11;78188.63;;;-142.58;68.38
31183;BME280;17813;0.000;0.000;2024-01-30T03:47:55;78200.84;;;-142.58;69.26
31183;BME280;17813;0.000;0.000;2024-01-30T03:50:23;78211.03;;;-142.58;69.69
31183;BME280;17813;0.000;0.000;2024-01-30T03:52:52;78208.97;;;-142.58;69.67
31183;BME280;17813;0.000;0.000;2024-01-30T03:55:28;78219.28;;;-142.58;69.06
31183;BME280;17813;0.000;0.000;2024-01-30T03:57:56;78198.81;;;-142.58;69.26
31183;BME280;17813;0.000;0.000;2024-01-30T04:00:42;78188.75;;;-142.58;69.02
31183;BME280;17813;0.000;0.000;2024-01-30T04:03:29;78200.84;;;-142.58;68.61
31183;BME280;17813;0.000;0.000;2024-01-30T04:06:11;78198.81;;;-142.58;69.05
31183;BME280;17813;0.000;0.000;2024-01-30T04:09:10;78198.81;;;-142.58;68.38
31183;BME280;17813;0.000;0.000;2024-01-30T04:11:41;78196.78;;;-142.58;68.41
31183;BME280;17813;0.000;0.000;2024-01-30T04:14:08;78172.34;;;-142.58;67.98
31183;BME280;17813;0.000;0.000;2024-01-30T04:16:52;78170.31;;;-142.58;67.09
31183;BME280;17813;0.000;0.000;2024-01-30T04:19:40;78160.13;;;-142.58;66.89
31183;BME280;17813;0.000;0.000;2024-01-30T04:22:10;78145.88;;;-142.58;67.43
31183;BME280;17813;0.000;0.000;2024-01-30T04:24:56;78154.03;;;-142.58;67.13
31183;BME280;17813;0.000;0.000;2024-01-30T04:27:42;78133.66;;;-142.58;66.60
31183;BME280;17813;0.000;0.000;2024-01-30T04:30:11;78121.47;;;-142.58;65.92
31183;BME280;17813;0.000;0.000;2024-01-30T04:32:49;78121.47;;;-142.58;66.25
31183;BME280;17813;0.000;0.000;2024-01-30T04:35:34;78137.75;;;-142.58;66.21
31183;BME280;17813;0.000;0.000;2024-01-30T04:38:02;78149.97;;;-142.58;66.70
31183;BME280;17813;0.000;0.000;2024-01-30T04:40:30;78154.03;;;-142.58;66.73
31183;BME280;17813;0.000;0.000;2024-01-30T04:42:57;78162.16;;;-142.58;66.74
31183;BME280;17813;0.000;0.000;2024-01-30T04:45:37;78180.47;;;-142.58;66.78
31183;BME280;17813;0.000;0.000;2024-01-30T04:48:05;78182.53;;;-142.58;66.97
31183;BME280;17813;0.000;0.000;2024-01-30T04:50:35;78194.72;;;-142.58;66.82
31183;BME280;17813;0.000;0.000;2024-01-30T04:53:03;78174.38;;;-142.58;66.66
31183;BME280;17813;0.000;0.000;2024-01-30T04:55:31;78162.16;;;-142.58;65.57
31183;BME280;17813;0.000;0.000;2024-01-30T04:57:58;78145.88;;;-142.58;65.99
31183;BME280;17813;0.000;0.000;2024-01-30T05:00:29;78139.78;;;-142.58;66.14
31183;BME280;17813;0.000;0.000;2024-01-30T05:03:08;78137.75;;;-142.58;65.16
31183;BME280;17813;0.000;0.000;2024-01-30T05:05:36;78131.63;;;-142.58;65.85
31183;BME280;17813;0.000;0.000;2024-01-30T05:08:03;78139.78;;;-142.58;65.15
31183;BME280;17813;0.000;0.000;2024-01-30T05:10:33;78149.97;;;-142.58;65.39
31183;BME280;17813;0.000;0.000;2024-01-30T05:13:18;78156.19;;;-142.58;66.11
31183;BME280;17813;0.000;0.000;2024-01-30T05:15:50;78170.31;;;-142.58;66.19
31183;BME280;17813;0.000;0.000;2024-01-30T05:18:29;78192.69;;;-142.58;65.84
31183;BME280;17813;0.000;0.000;2024-01-30T05:21:11;78204.91;;;-142.58;66.89
31183;BME280;17813;0.000;0.000;2024-01-30T05:23:53;78229.34;;;-142.58;67.47
31183;BME280;17813;0.000;0.000;2024-01-30T05:26:20;78243.59;;;-142.58;67.11
31183;BME280;17813;0.000;0.000;2024-01-30T05:29:00;78251.72;;;-142.58;67.98
31183;BME280;17813;0.000;0.000;2024-01-30T05:31:27;78265.97;;;-142.58;67.19
31183;BME280;17813;0.000;0.000;2024-01-30T05:33:55;78284.41;;;-142.58;67.82
31183;BME280;17813;0.000;0.000;2024-01-30T05:36:23;78308.72;;;-142.58;69.09
31183;BME280;17813;0.000;0.000;2024-01-30T05:39:04;78306.69;;;-142.58;69.23
31183;BME280;17813;0.000;0.000;2024-01-30T05:41:49;78314.94;;;-142.58;68.96
31183;BME280;17813;0.000;0.000;2024-01-30T05:44:18;78331.09;;;-142.58;69.50
31183;BME280;17813;0.000;0.000;2024-01-30T05:46:55;78331.09;;;-142.58;69.53
31183;BME280;17813;0.000;0.000;2024-01-30T05:49:39;78333.28;;;-142.58;70.46
31183;BME280;17813;0.000;0.000;2024-01-30T05:52:34;78339.38;;;-142.58;69.78
31183;BME280;17813;0.000;0.000;2024-01-30T05:55:06;78351.59;;;-142.58;70.52
31183;BME280;17813;0.000;0.000;2024-01-30T05:57:37;78345.47;;;-142.58;71.18
31183;BME280;17813;0.000;0.000;2024-01-30T06:00:08;78357.56;;;-142.58;70.89
31183;BME280;17813;0.000;0.000;2024-01-30T06:02:36;78345.47;;;-142.58;72.33
31183;BME280;17813;0.000;0.000;2024-01-30T06:05:05;78339.25;;;-142.58;72.80
31183;BME280;17813;0.000;0.000;2024-01-30T06:07:51;78339.38;;;-142.58;73.33
31183;BME280;17813;0.000;0.000;2024-01-30T06:10:29;78327.16;;;-142.58;72.75
31183;BME280;17813;0.000;0.000;2024-01-30T06:13:01;78314.81;;;-142.58;71.46
31183;BME280;17813;0.000;0.000;2024-01-30T06:15:48;78319.03;;;-142.58;70.60
31183;BME280;17813;0.000;0.000;2024-01-30T06:18:17;78300.56;;;-142.58;72.97
31183;BME280;17813;0.000;0.000;2024-01-30T06:20:44;78290.41;;;-142.58;72.14
31183;BME280;17813;0.000;0.000;2024-01-30T06:23:15;78274.13;;;-142.58;71.50
31183;BME280;17813;0.000;0.000;2024-01-30T06:26:00;78093.09;;;-142.58;71.39
31183;BME280;17813;0.000;0.000;2024-01-30T06:28:44;78249.69;;;-142.58;70.73
31183;BME280;17813;0.000;0.000;2024-01-30T06:31:26;78200.84;;;-142.58;70.83
31183;BME280;17813;0.000;0.000;2024-01-30T06:33:54;78198.81;;;-142.58;70.09
31183;BME280;17813;0.000;0.000;2024-01-30T06:36:22;78184.56;;;-142.58;70.22
31183;BME280;17813;0.000;0.000;2024-01-30T06:38:49;78178.44;;;-142.58;69.55
31183;BME280;17813;0.000;0.000;2024-01-30T06:41:18;78180.47;;;-142.58;69.93
31183;BME280;17813;0.000;0.000;2024-01-30T06:43:45;78178.44;;;-142.58;32.03
31183;BME280;17813;0.000;0.000;2024-01-30T06:46:31;78172.34;;;-142.58;70.02
31183;BME280;17813;0.000;0.000;2024-01-30T06:49:22;78172.34;;;-142.58;68.81
31183;BME280;17813;0.000;0.000;2024-01-30T06:52:15;78166.25;;;-142.58;70.02
31183;BME280;17813;0.000;0.000;2024-01-30T06:54:55;78170.31;;;-142.58;69.02
31183;BME280;17813;0.000;0.000;2024-01-30T06:57:22;78168.28;;;-142.58;70.23
31183;BME280;17813;0.000;0.000;2024-01-30T07:00:02;78152.00;;;-142.58;69.50
31183;BME280;17813;0.000;0.000;2024-01-30T07:02:31;78143.84;;;-142.58;68.97
31183;BME280;17813;0.000;0.000;2024-01-30T07:05:05;77959.41;;;-142.58;68.47
31183;BME280;17813;0.000;0.000;2024-01-30T07:07:33;78133.66;;;-142.58;68.70
31183;BME280;17813;0.000;0.000;2024-01-30T07:10:02;78133.66;;;-142.58;68.52
31183;BME280;17813;0.000;0.000;2024-01-30T07:12:32;32700.34;;;-142.58;67.87
31183;BME280;17813;0.000;0.000;2024-01-30T07:15:00;78105.19;;;-142.58;67.88
31183;BME280;17813;0.000;0.000;2024-01-30T07:17:43;78097.03;;;-142.58;67.51
31183;BME280;17813;0.000;0.000;2024-01-30T07:20:18;78078.72;;;-142.58;67.40
31183;BME280;17813;0.000;0.000;2024-01-30T07:22:55;78062.44;;;-142.58;66.40
31183;BME280;17813;0.000;0.000;2024-01-30T07:25:23;78054.28;;;-142.58;67.11
31183;BME280;17813;0.000;0.000;2024-01-30T07:27:57;78042.22;;;-142.58;66.27
31183;BME280;17813;0.000;0.000;2024-01-30T07:30:24;78021.72;;;-142.58;66.29
31183;BME280;17813;0.000;0.000;2024-01-30T07:32:51;78003.41;;;-142.58;65.93
31183;BME280;17813;0.000;0.000;2024-01-30T07:35:18;77993.22;;;-142.58;65.22
31183;BME280;17813;0.000;0.000;2024-01-30T07:37:47;77979.00;;;-142.58;64.46
31183;BME280;17813;0.000;0.000;2024-01-30T07:40:14;77958.75;;;-143.88;65.21
31183;BME280;17813;0.000;0.000;2024-01-30T07:42:50;77964.75;;;-142.58;63.99
31183;BME280;17813;0.000;0.000;2024-01-30T07:45:19;77928.09;;;-143.88;64.20
31183;BME280;17813;0.000;0.000;2024-01-30T07:47:51;100809.28;;;-142.58;62.63
31183;BME280;17813;0.000;0.000;2024-01-30T07:50:20;100760.69;;;4.09;63.01
31183;BME280;17813;0.000;0.000;2024-01-30T07:52:49;77893.50;;;-143.88;63.01
31183;BME280;17813;0.000;0.000;2024-01-30T07:55:22;77909.78;;;-143.88;62.26
31183;BME280;17813;0.000;0.000;2024-01-30T07:57:56;100769.78;;;4.44;62.63
31183;BME280;17813;0.000;0.000;2024-01-30T08:00:26;100768.63;;;4.60;61.57
31183;BME280;17813;0.000;0.000;2024-01-30T08:02:54;100771.13;;;4.68;60.55
31183;BME280;17813;0.000;0.000;2024-01-30T08:05:24;77822.41;;;-143.88;60.55
31183;BME280;17813;0.000;0.000;2024-01-30T08:07:52;77834.50;;;-142.58;60.08
31183;BME280;17813;0.000;0.000;2024-01-30T08:10:19;100754.19;;;4.84;59.43
31183;BME280;17813;0.000;0.000;2024-01-30T08:12:47;100774.31;;;4.87;59.23
31183;BME280;17813;0.000;0.000;2024-01-30T08:15:17;100761.84;;;4.98;59.35
31183;BME280;17813;0.000;0.000;2024-01-30T08:17:45;100751.94;;;5.10;59.26
31183;BME280;17813;0.000;0.000;2024-01-30T08:20:13;100764.72;;;5.32;59.66
31183;BME280;17813;0.000;0.000;2024-01-30T08:22:41;100772.59;;;5.33;59.09
31183;BME280;17813;0.000;0.000;2024-01-30T08:25:08;100768.66;;;5.54;58.86
31183;BME280;17813;0.000;0.000;2024-01-30T08:27:36;100763.97;;;5.68;57.34
31183;BME280;17813;0.000;0.000;2024-01-30T08:30:07;100754.41;;;5.64;57.71
31183;BME280;17813;0.000;0.000;2024-01-30T08:32:35;100756.00;;;5.71;57.41
31183;BME280;17813;0.000;0.000;2024-01-30T08:35:21;100757.75;;;5.71;57.58
31183;BME280;17813;0.000;0.000;2024-01-30T08:37:53;100756.78;;;5.76;57.54
31183;BME280;17813;0.000;0.000;2024-01-30T08:40:25;100746.13;;;5.81;57.97
31183;BME280;17813;0.000;0.000;2024-01-30T08:42:55;100749.19;;;6.03;57.08
31183;BME280;17813;0.000;0.000;2024-01-30T08:45:24;100750.28;;;6.31;57.21
31183;BME280;17813;0.000;0.000;2024-01-30T08:48:06;100745.53;;;6.45;56.57
31183;BME280;17813;0.000;0.000;2024-01-30T08:50:35;100740.06;;;6.53;55.57
31183;BME280;17813;0.000;0.000;2024-01-30T08:53:04;77553.78;;;-143.88;55.57
31183;BME280;17813;0.000;0.000;2024-01-30T08:55:31;100733.41;;;6.38;55.96
31183;BME280;17813;0.000;0.000;2024-01-30T08:57:58;100746.13;;;6.57;55.98
31183;BME280;17813;0.000;0.000;2024-01-30T09:00:28;100745.03;;;6.65;54.99
31183;BME280;17813;0.000;0.000;2024-01-30T09:02:59;100740.25;;;6.80;54.61
31183;BME280;17813;0.000;0.000;2024-01-30T09:05:28;100737.59;;;7.14;54.24
31183;BME280;17813;0.000;0.000;2024-01-30T09:08:04;100750.34;;;7.29;52.54
31183;BME280;17813;0.000;0.000;2024-01-30T09:10:47;100744.53;;;7.47;52.79
31183;BME280;17813;0.000;0.000;2024-01-30T09:13:22;100731.91;;;7.58;52.35
31183;BME280;17813;0.000;0.000;2024-01-30T09:15:53;100737.41;;;8.10;51.37
31183;BME280;17813;0.000;0.000;2024-01-30T09:18:44;100728.31;;;8.18;50.83
31183;BME280;17813;0.000;0.000;2024-01-30T09:21:13;100735.47;;;8.43;50.37
31183;BME280;17813;0.000;0.000;2024-01-30T09:23:42;100730.00;;;8.49;50.20
31183;BME280;17813;0.000;0.000;2024-01-30T09:26:12;100729.22;;;8.72;50.08
31183;BME280;17813;0.000;0.000;2024-01-30T09:28:40;100734.31;;;9.02;49.15
31183;BME280;17813;0.000;0.000;2024-01-30T09:31:12;100732.91;;;9.17;47.73
31183;BME280;17813;0.000;0.000;2024-01-30T09:33:41;100731.94;;;9.43;48.35
31183;BME280;17813;0.000;0.000;2024-01-30T09:36:12;100724.06;;;9.65;47.42
31183;BME280;17813;0.000;0.000;2024-01-30T09:38:51;100720.44;;;9.67;47.15
31183;BME280;17813;0.000;0.000;2024-01-30T09:44:35;100721.16;;;9.24;47.82
31183;BME280;17813;0.000;0.000;2024-01-30T09:47:19;100726.63;;;9.20;48.95
31183;BME280;17813;0.000;0.000;2024-01-30T09:49:53;100726.78;;;9.15;48.67
31183;BME280;17813;0.000;0.000;2024-01-30T09:52:21;100728.47;;;9.18;49.11
31183;BME280;17813;0.000;0.000;2024-01-30T09:54:51;100736.28;;;9.21;48.79
31183;BME280;17813;0.000;0.000;2024-01-30T09:57:21;100730.25;;;9.17;49.18
31183;BME280;17813;0.000;0.000;2024-01-30T09:59:48;100731.97;;;9.18;48.76
31183;BME280;17813;0.000;0.000;2024-01-30T10:02:23;100736.34;;;9.19;49.14
31183;BME280;17813;0.000;0.000;2024-01-30T10:04:54;100725.66;;;9.22;47.93
31183;BME280;17813;0.000;0.000;2024-01-30T10:07:24;100729.66;;;9.09;48.05
31183;BME280;17813;0.000;0.000;2024-01-30T10:09:53;100729.78;;;9.06;48.36
31183;BME280;17813;0.000;0.000;2024-01-30T10:12:26;100724.19;;;9.14;48.11
31183;BME280;17813;0.000;0.000;2024-01-30T10:15:08;100721.44;;;9.17;49.00
31183;BME280;17813;0.000;0.000;2024-01-30T10:17:39;100713.84;;;9.31;47.82
31183;BME280;17813;0.000;0.000;2024-01-30T10:20:07;100715.13;;;9.44;48.24
31183;BME280;17813;0.000;0.000;2024-01-30T10:22:37;100720.72;;;9.37;47.65
31183;BME280;17813;0.000;0.000;2024-01-30T10:25:05;100705.81;;;9.34;48.08
31183;BME280;17813;0.000;0.000;2024-01-30T10:27:34;100707.19;;;9.21;48.86
31183;BME280;17813;0.000;0.000;2024-01-30T10:30:14;100699.00;;;9.27;48.65
31183;BME280;17813;0.000;0.000;2024-01-30T10:32:43;100697.41;;;9.23;48.94
31183;BME280;17813;0.000;0.000;2024-01-30T10:35:12;100689.56;;;9.43;48.73
31183;BME280;17813;0.000;0.000;2024-01-30T10:37:41;100689.13;;;9.77;48.25
31183;BME280;17813;0.000;0.000;2024-01-30T10:40:11;100682.56;;;10.09;47.75
31183;BME280;17813;0.000;0.000;2024-01-30T10:43:04;100680.53;;;10.38;47.08
31183;BME280;17813;0.000;0.000;2024-01-30T10:45:54;100682.31;;;10.79;46.71
31183;BME280;17813;0.000;0.000;2024-01-30T10:48:30;100681.91;;;10.88;46.09
31183;BME280;17813;0.000;0.000;2024-01-30T10:51:00;100681.50;;;10.98;45.85
31183;BME280;17813;0.000;0.000;2024-01-30T10:53:43;100679.19;;;10.90;45.78
31183;BME280;17813;0.000;0.000;2024-01-30T10:56:14;100682.22;;;11.01;46.61
31183;BME280;17813;0.000;0.000;2024-01-30T10:58:58;100669.00;;;11.20;45.65
31183;BME280;17813;0.000;0.000;2024-01-30T11:01:29;100669.66;;;11.63;44.95
31183;BME280;17813;0.000;0.000;2024-01-30T11:03:58;100664.38;;;12.17;44.32
31183;BME280;17813;0.000;0.000;2024-01-30T11:06:27;100659.69;;;12.57;43.75
31183;BME280;17813;0.000;0.000;2024-01-30T11:09:03;100674.81;;;12.74;43.03
31183;BME280;17813;0.000;0.000;2024-01-30T11:12:00;100665.25;;;12.70;43.00
31183;BME280;17813;0.000;0.000;2024-01-30T11:14:32;100656.94;;;13.10;42.78
31183;BME280;17813;0.000;0.000;2024-01-30T11:17:04;100650.16;;;13.54;42.58
31183;BME280;17813;0.000;0.000;2024-01-30T11:19:37;100665.03;;;13.73;41.75
31183;BME280;17813;0.000;0.000;2024-01-30T11:22:10;100659.19;;;13.82;41.55
31183;BME280;17813;0.000;0.000;2024-01-30T11:24:41;100660.06;;;13.83;41.09
31183;BME280;17813;0.000;0.000;2024-01-30T11:27:09;100654.63;;;13.84;41.86
31183;BME280;17813;0.000;0.000;2024-01-30T11:29:37;100652.47;;;13.91;41.41
31183;BME280;17813;0.000;0.000;2024-01-30T11:32:04;100644.91;;;13.83;41.65
31183;BME280;17813;0.000;0.000;2024-01-30T11:34:33;100649.38;;;13.67;41.79
31183;BME280;17813;0.000;0.000;2024-01-30T11:37:21;100655.63;;;13.02;43.09
31183;BME280;17813;0.000;0.000;2024-01-30T11:39:50;100652.66;;;12.73;43.44
31183;BME280;17813;0.000;0.000;2024-01-30T11:42:18;100645.94;;;12.49;44.25
31183;BME280;17813;0.000;0.000;2024-01-30T11:44:48;100647.19;;;12.59;44.12
31183;BME280;17813;0.000;0.000;2024-01-30T11:47:16;100633.31;;;12.70;43.98
31183;BME280;17813;0.000;0.000;2024-01-30T11:49:45;100638.41;;;12.74;44.25
31183;BME280;17813;0.000;0.000;2024-01-30T11:52:16;100639.56;;;12.86;43.99
31183;BME280;17813;0.000;0.000;2024-01-30T11:54:51;100635.47;;;12.96;44.00
31183;BME280;17813;0.000;0.000;2024-01-30T11:57:19;100623.09;;;12.95;44.03
31183;BME280;17813;0.000;0.000;2024-01-30T11:59:46;100621.47;;;12.93;43.67
31183;BME280;17813;0.000;0.000;2024-01-30T12:02:18;100619.44;;;12.80;44.23
31183;BME280;17813;0.000;0.000;2024-01-30T12:05:05;100618.06;;;12.56;44.90
31183;BME280;17813;0.000;0.000;2024-01-30T12:07:38;100621.03;;;12.67;44.98
31183;BME280;17813;0.000;0.000;2024-01-30T12:10:21;100616.34;;;12.55;45.13
31183;BME280;17813;0.000;0.000;2024-01-30T12:12:54;100616.09;;;12.60;45.19
31183;BME280;17813;0.000;0.000;2024-01-30T12:15:23;100605.22;;;12.47;45.45
31183;BME280;17813;0.000;0.000;2024-01-30T12:17:51;100614.00;;;12.49;45.81
31183;BME280;17813;0.000;0.000;2024-01-30T12:20:23;100601.00;;;12.60;46.42
31183;BME280;17813;0.000;0.000;2024-01-30T12:22:51;100607.47;;;12.72;46.20
31183;BME280;17813;0.000;0.000;2024-01-30T12:25:33;100605.34;;;12.78;45.81
31183;BME280;17813;0.000;0.000;2024-01-30T12:28:01;100609.13;;;12.74;45.96
31183;BME280;17813;0.000;0.000;2024-01-30T12:30:35;100601.00;;;12.60;46.54
31183;BME280;17813;0.000;0.000;2024-01-30T12:33:17;100609.91;;;12.59;46.54
31183;BME280;17813;0.000;0.000;2024-01-30T12:35:47;100604.13;;;12.51;47.63
31183;BME280;17813;0.000;0.000;2024-01-30T12:38:17;100600.78;;;12.47;48.00
31183;BME280;17813;0.000;0.000;2024-01-30T12:40:45;100591.63;;;12.53;47.49
31183;BME280;17813;0.000;0.000;2024-01-30T12:43:14;100587.56;;;12.46;47.62
31183;BME280;17813;0.000;0.000;2024-01-30T12:45:42;100596.94;;;12.53;48.13
31183;BME280;17813;0.000;0.000;2024-01-30T12:48:14;100598.72;;;12.52;47.95
31183;BME280;17813;0.000;0.000;2024-01-30T12:50:44;100588.78;;;12.56;48.07
31183;BME280;17813;0.000;0.000;2024-01-30T12:53:12;100584.34;;;12.56;47.76
31183;BME280;17813;0.000;0.000;2024-01-30T12:55:46;100591.53;;;12.37;48.99
31183;BME280;17813;0.000;0.000;2024-01-30T12:58:15;100587.56;;;12.46;48.89
31183;BME280;17813;0.000;0.000;2024-01-30T13:00:44;100576.75;;;12.49;48.74
31183;BME280;17813;0.000;0.000;2024-01-30T13:03:12;100580.34;;;12.48;48.58
31183;BME280;17813;0.000;0.000;2024-01-30T13:05:39;100580.34;;;12.48;49.07
31183;BME280;17813;0.000;0.000;2024-01-30T13:08:08;100576.59;;;12.52;49.17
31183;BME280;17813;0.000;0.000;2024-01-30T13:10:54;100573.31;;;12.47;48.97
31183;BME280;17813;0.000;0.000;2024-01-30T13:13:21;100577.38;;;12.54;49.37
31183;BME280;17813;0.000;0.000;2024-01-30T13:15:49;100575.78;;;12.67;48.87
31183;BME280;17813;0.000;0.000;2024-01-30T13:18:19;100577.81;;;12.62;48.51
31183;BME280;17813;0.000;0.000;2024-01-30T13:20:52;100576.19;;;12.60;48.45
31183;BME280;17813;0.000;0.000;2024-01-30T13:23:35;100574.50;;;12.74;49.07
31183;BME280;17813;0.000;0.000;2024-01-30T13:26:04;100570.50;;;12.83;48.75
31183;BME280;17813;0.000;0.000;2024-01-30T13:28:33;100569.88;;;12.78;48.91
31183;BME280;17813;0.000;0.000;2024-01-30T13:31:02;100568.94;;;12.79;48.97
31183;BME280;17813;0.000;0.000;2024-01-30T13:33:29;100567.72;;;12.69;49.16